aviador You're here:

UGSB Decoded Metar

BATUMI in GEORGIA
Report Time2018-04-24 14:00:00
UTC Time2018-04-24 14:19:25
Flight Rules vfr VFR
Wind340° at 05 kt
W.Decomp.*RWY 31: 4.5 kt HW 2.2 kt RCW
W.Rank340° ranks 23
Current wind is below 340° avg. (5.4)
Visibility9999 m
Phenomena:N/A
Clouds:N/A
Expected CloudBase > 1,600 ft AGL from Temp-Dew spread
CeilingNone
Temp17°C (ISA +2)
Dew Point13°C (77% RH)
AAT16.1°C
QNH1021 hPa
Density Alt295 ft
Elevation105 ft
Report Wrong Elevation
Raw Report
METAR UGSB 241400Z 34005KT CAVOK 17/13 Q1021 R13/CLRD70 NOSIG=

Extra information for UGSB:More info

Metar Taf Metar & Taf Last 4 Metars F.Rules Stats Wind Profile Meteogram Temp Stats Airport Information Weather charts Add Link Nearby VenuesMetar ALERT Operation Metar Decoded Social comments